Time;durP1;ratioP1;P1;durP2;ratioP2;P2;SDS_P1;SDS_P2;PMS_P1;PMS_P2;Temp;Humidity;BMP_temperature;BMP_pressure;BME280_temperature;BME280_humidity;BME280_pressure;Samples;Min_cycle;Max_cycle;Signal;HPM_P1;HPM_P2
2022/07/23 00:00:38;;;;;;;;;;;;;;;26.47;46.65;99682.28;1087868;54;19946;-78
2022/07/23 00:01:41;;;;;;;;;;;;;;;26.42;47.04;99676.78;1087955;46;19958;-78
2022/07/23 00:02:42;;;;;;;;;;;;;;;26.42;47.23;99685.00;1087919;54;19950;-79
2022/07/23 00:03:46;;;;;;;;;;;;;;;26.46;47.02;99678.75;1090452;39;20538;-81
2022/07/23 00:04:47;;;;;;;;;;;;;;;26.39;47.29;99677.28;1088409;54;19926;-79
2022/07/23 00:05:53;;;;;;;;;;;;;;;26.29;47.45;99684.31;1088158;54;19949;-80
2022/07/23 00:06:55;;;;;;;;;;;;;;;26.35;47.20;99676.16;1088168;54;19943;-81
2022/07/23 00:07:58;;;;;;;;;;;;;;;26.37;47.19;99673.97;1088093;54;19942;-79
2022/07/23 00:08:59;;;;;;;;;;;;;;;26.34;47.16;99672.59;1088103;54;19942;-80
2022/07/23 00:10:03;;;;;;;;;;;;;;;26.44;47.05;99661.72;1087968;54;20491;-78
2022/07/23 00:11:07;;;;;;;;;;;;;;;26.53;46.73;99664.84;1088082;54;19943;-78
2022/07/23 00:12:08;;;;;;;;;;;;;;;26.54;46.65;99661.00;1087473;54;19951;-78
2022/07/23 00:13:12;;;;;;;;;;;;;;;26.58;46.48;99664.88;1087636;54;19927;-76
2022/07/23 00:14:13;;;;;;;;;;;;;;;26.40;46.87;99670.72;1087835;54;19966;-78
2022/07/23 00:15:17;;;;;;;;;;;;;;;26.39;46.94;99669.06;1087204;54;20532;-79
2022/07/23 00:16:18;;;;;;;;;;;;;;;26.46;46.76;99669.69;1088803;39;20397;-78
2022/07/23 00:17:22;;;;;;;;;;;;;;;26.45;46.67;99663.38;1087684;54;19946;-78
2022/07/23 00:18:23;;;;;;;;;;;;;;;26.51;46.39;99661.53;1088049;54;19957;-79
2022/07/23 00:19:28;;;;;;;;;;;;;;;26.53;46.37;99656.63;1087674;54;20015;-77
2022/07/23 00:20:29;;;;;;;;;;;;;;;26.57;46.18;99651.44;1087560;54;19998;-79
2022/07/23 00:21:36;;;;;;;;;;;;;;;26.56;46.45;99649.78;1087803;54;20312;-76
2022/07/23 00:22:45;;;;;;;;;;;;;;;26.60;46.08;99648.16;1088133;54;19942;-78
2022/07/23 00:23:48;;;;;;;;;;;;;;;26.59;46.32;99644.59;1088013;54;19946;-78
2022/07/23 00:24:51;;;;;;;;;;;;;;;26.62;46.16;99644.09;1088004;54;19954;-77
2022/07/23 00:25:54;;;;;;;;;;;;;;;26.62;45.94;99644.09;1087606;54;19973;-78
2022/07/23 00:26:55;;;;;;;;;;;;;;;26.50;46.36;99651.66;1088385;54;19943;-79
2022/07/23 00:27:59;;;;;;;;;;;;;;;26.48;46.54;99651.06;1088192;54;20693;-80
2022/07/23 00:29:00;;;;;;;;;;;;;;;26.39;46.37;99655.38;1088353;54;19939;-78
2022/07/23 00:30:04;;;;;;;;;;;;;;;26.37;46.89;99654.78;1090191;46;19938;-80
2022/07/23 00:31:06;;;;;;;;;;;;;;;26.34;46.92;99661.63;1088278;54;19950;-80
2022/07/23 00:32:09;;;;;;;;;;;;;;;26.28;47.02;99668.97;1088277;54;19982;-78
2022/07/23 00:33:10;;;;;;;;;;;;;;;26.23;47.18;99677.16;1088194;54;19923;-77
2022/07/23 00:34:14;;;;;;;;;;;;;;;26.25;46.92;99676.88;1089611;46;19958;-81
2022/07/23 00:35:16;;;;;;;;;;;;;;;26.24;47.42;99670.59;1089739;39;20523;-81
2022/07/23 00:36:20;;;;;;;;;;;;;;;26.15;47.46;99669.38;1096129;39;20648;-80
2022/07/23 00:37:23;;;;;;;;;;;;;;;26.17;47.16;99669.94;1088308;54;19994;-80
2022/07/23 00:38:27;;;;;;;;;;;;;;;26.21;47.35;99667.53;1088252;54;19935;-81
2022/07/23 00:39:28;;;;;;;;;;;;;;;26.15;47.62;99663.91;1088321;54;20637;-80
2022/07/23 00:40:32;;;;;;;;;;;;;;;26.04;47.82;99664.84;1088229;54;19949;-80
2022/07/23 00:41:36;;;;;;;;;;;;;;;26.06;47.95;99659.94;1088387;54;19942;-81
2022/07/23 00:42:37;;;;;;;;;;;;;;;26.06;47.88;99654.47;1088159;54;19942;-81
2022/07/23 00:43:41;;;;;;;;;;;;;;;25.97;47.93;99659.56;1088341;54;19926;-81
2022/07/23 00:44:43;;;;;;;;;;;;;;;26.01;48.26;99647.84;1088375;54;19943;-82
2022/07/23 00:45:48;;;;;;;;;;;;;;;26.09;47.83;99643.84;1088182;54;19982;-81
2022/07/23 00:46:52;;;;;;;;;;;;;;;26.00;48.00;99651.66;1088368;54;19999;-81
2022/07/23 00:47:56;;;;;;;;;;;;;;;26.01;48.01;99647.84;1088343;54;20600;-80
2022/07/23 00:48:57;;;;;;;;;;;;;;;26.05;48.00;99645.41;1088061;54;19934;-81
2022/07/23 00:50:01;;;;;;;;;;;;;;;26.00;48.36;99646.19;1087908;54;19950;-80
2022/07/23 00:51:02;;;;;;;;;;;;;;;25.96;48.02;99658.75;1088287;54;19943;-83
2022/07/23 00:52:06;;;;;;;;;;;;;;;25.98;48.33;99653.81;1090219;39;20469;-80
2022/07/23 00:53:10;;;;;;;;;;;;;;;25.94;48.20;99657.34;1088271;54;19938;-78
2022/07/23 00:54:13;;;;;;;;;;;;;;;25.92;48.41;99665.81;1089625;46;19939;-76
2022/07/23 00:55:15;;;;;;;;;;;;;;;26.01;47.80;99657.97;1088090;54;19970;-79
2022/07/23 00:56:19;;;;;;;;;;;;;;;26.08;47.64;99655.03;1087567;54;19962;-78
2022/07/23 00:57:20;;;;;;;;;;;;;;;26.01;47.69;99645.09;1088044;54;20833;-80
2022/07/23 00:58:23;;;;;;;;;;;;;;;26.07;47.44;99645.19;1087974;54;19934;-81
2022/07/23 00:59:24;;;;;;;;;;;;;;;26.00;47.68;99639.91;1088346;54;20033;-82
2022/07/23 01:00:28;;;;;;;;;;;;;;;26.06;47.38;99643.53;1088110;54;20648;-80
2022/07/23 01:01:29;;;;;;;;;;;;;;;26.07;47.39;99645.19;1087689;54;19927;-78
2022/07/23 01:02:33;;;;;;;;;;;;;;;26.10;47.41;99650.16;1087387;54;19954;-80
2022/07/23 01:03:34;;;;;;;;;;;;;;;26.04;47.35;99653.91;1088197;54;19949;-82
2022/07/23 01:04:38;;;;;;;;;;;;;;;26.12;46.98;99653.47;1087886;54;19942;-81
2022/07/23 01:05:40;;;;;;;;;;;;;;;26.15;46.75;99652.97;1087821;54;19934;-80
2022/07/23 01:06:45;;;;;;;;;;;;;;;26.22;46.66;99653.56;1088154;54;19983;-79
2022/07/23 01:07:47;;;;;;;;;;;;;;;26.08;46.71;99650.38;1089021;46;19958;-81
2022/07/23 01:08:53;;;;;;;;;;;;;;;26.13;46.66;99644.97;1089602;39;20349;-79
2022/07/23 01:09:54;;;;;;;;;;;;;;;26.03;46.39;99650.31;1088052;54;19958;-81
2022/07/23 01:10:58;;;;;;;;;;;;;;;26.00;46.91;99651.66;1088123;54;19947;-78
2022/07/23 01:12:00;;;;;;;;;;;;;;;26.02;46.75;99651.44;1088187;54;19938;-80
2022/07/23 01:13:04;;;;;;;;;;;;;;;25.99;46.68;99655.47;1088282;39;20430;-81
2022/07/23 01:14:09;;;;;;;;;;;;;;;25.93;46.56;99656.53;1088058;54;19927;-82
2022/07/23 01:15:14;;;;;;;;;;;;;;;25.85;46.67;99654.25;1088235;54;19950;-80
2022/07/23 01:16:16;;;;;;;;;;;;;;;25.92;46.72;99660.34;1087948;54;19970;-80
2022/07/23 01:17:20;;;;;;;;;;;;;;;25.88;46.86;99648.25;1088292;54;20640;-79
2022/07/23 01:18:21;;;;;;;;;;;;;;;25.80;46.88;99651.41;1088230;54;19943;-80
2022/07/23 01:19:25;;;;;;;;;;;;;;;25.80;46.89;99651.41;1088110;54;19949;-79
2022/07/23 01:20:26;;;;;;;;;;;;;;;25.79;46.96;99653.34;1088136;54;19950;-78
2022/07/23 01:21:30;;;;;;;;;;;;;;;25.80;46.97;99651.41;1087889;46;19989;-79
2022/07/23 01:22:34;;;;;;;;;;;;;;;25.85;46.78;99648.75;1087678;54;19949;-78
2022/07/23 01:23:37;;;;;;;;;;;;;;;25.86;46.66;99644.94;1088192;54;19951;-78
2022/07/23 01:24:39;;;;;;;;;;;;;;;25.90;46.81;99643.34;1088210;54;19949;-81
2022/07/23 01:25:49;;;;;;;;;;;;;;;25.92;46.80;99638.44;1090584;31;20485;-81
2022/07/23 01:26:51;;;;;;;;;;;;;;;25.84;46.62;99639.72;1088729;39;20694;-81
2022/07/23 01:27:55;;;;;;;;;;;;;;;25.91;46.46;99636.78;1088251;54;19931;-81
2022/07/23 01:28:56;;;;;;;;;;;;;;;25.98;46.28;99631.09;1088197;54;19967;-82
2022/07/23 01:30:02;;;;;;;;;;;;;;;26.05;46.25;99625.44;1088196;54;19957;-82
2022/07/23 01:31:03;;;;;;;;;;;;;;;26.07;46.20;99620.53;1088043;54;19942;-84
2022/07/23 01:32:07;;;;;;;;;;;;;;;26.08;46.17;99620.25;1088073;54;20645;-82
2022/07/23 01:33:08;;;;;;;;;;;;;;;26.12;45.77;99615.13;1088248;54;19951;-79
2022/07/23 01:34:12;;;;;;;;;;;;;;;26.15;45.64;99617.34;1088102;54;19949;-82
2022/07/23 01:35:13;;;;;;;;;;;;;;;26.17;46.00;99604.22;1088190;54;19966;-81
2022/07/23 01:36:17;;;;;;;;;;;;;;;26.21;45.82;99619.06;1090251;39;20538;-82
2022/07/23 01:37:18;;;;;;;;;;;;;;;26.24;45.65;99613.06;1088090;54;19946;-82
2022/07/23 01:38:24;;;;;;;;;;;;;;;26.22;45.63;99612.50;1088223;54;19950;-82
2022/07/23 01:39:25;;;;;;;;;;;;;;;26.19;45.39;99613.00;1088209;54;19947;-82
2022/07/23 01:40:29;;;;;;;;;;;;;;;26.06;46.10;99627.91;1088997;39;20359;-82
2022/07/23 01:41:30;;;;;;;;;;;;;;;26.07;45.65;99628.75;1091270;39;20333;-80
2022/07/23 01:42:34;;;;;;;;;;;;;;;26.06;45.54;99627.09;1088260;54;19950;-82
2022/07/23 01:43:35;;;;;;;;;;;;;;;26.04;45.81;99634.72;1088075;54;19949;-83
2022/07/23 01:44:45;;;;;;;;;;;;;;;25.98;46.21;99634.66;1091703;39;20352;-81
2022/07/23 01:45:49;;;;;;;;;;;;;;;25.94;46.09;99636.28;1090050;39;20565;-82
2022/07/23 01:46:50;;;;;;;;;;;;;;;25.84;46.42;99636.97;1088090;54;19942;-81
2022/07/23 01:47:54;;;;;;;;;;;;;;;25.89;46.56;99636.19;1088233;54;19949;-82
2022/07/23 01:48:55;;;;;;;;;;;;;;;25.78;46.49;99635.25;1088260;54;19950;-82
2022/07/23 01:49:59;;;;;;;;;;;;;;;25.78;46.50;99637.19;1087885;54;19942;-82
2022/07/23 01:51:00;;;;;;;;;;;;;;;25.80;46.69;99629.53;1087790;54;19943;-81
2022/07/23 01:52:09;;;;;;;;;;;;;;;25.80;46.90;99635.00;1087733;46;19965;-82
2022/07/23 01:53:10;;;;;;;;;;;;;;;25.75;46.98;99638.50;1087817;54;19942;-80
2022/07/23 01:54:16;;;;;;;;;;;;;;;25.70;47.13;99627.50;1092150;31;20628;-81
2022/07/23 01:55:17;;;;;;;;;;;;;;;25.73;46.84;99629.75;1087750;54;19950;-81
2022/07/23 01:56:21;;;;;;;;;;;;;;;25.72;47.10;99628.09;1088648;39;20454;-81
2022/07/23 01:57:22;;;;;;;;;;;;;;;25.73;46.92;99623.44;1087790;54;19965;-80
2022/07/23 01:58:26;;;;;;;;;;;;;;;25.64;47.27;99629.34;1088611;39;20439;-81
2022/07/23 01:59:27;;;;;;;;;;;;;;;25.65;47.08;99633.75;1087701;54;20034;-78
2022/07/23 02:00:31;;;;;;;;;;;;;;;25.59;47.05;99631.19;1087674;54;19966;-83
2022/07/23 02:01:32;;;;;;;;;;;;;;;25.57;47.34;99631.47;1087829;54;19942;-83
2022/07/23 02:02:36;;;;;;;;;;;;;;;25.49;47.68;99635.47;1087809;54;19942;-81
2022/07/23 02:03:37;;;;;;;;;;;;;;;25.63;47.12;99637.81;1087920;54;20611;-83
2022/07/23 02:04:41;;;;;;;;;;;;;;;25.64;47.30;99639.47;1087787;54;19949;-81
2022/07/23 02:05:42;;;;;;;;;;;;;;;25.60;47.55;99643.81;1087835;54;20049;-82
2022/07/23 02:06:46;;;;;;;;;;;;;;;25.52;47.66;99648.63;1087765;54;19941;-81
2022/07/23 02:07:47;;;;;;;;;;;;;;;25.49;47.83;99656.53;1089220;39;20545;-82
2022/07/23 02:08:51;;;;;;;;;;;;;;;25.43;48.15;99654.78;1088268;54;19939;-80
2022/07/23 02:09:54;;;;;;;;;;;;;;;25.33;48.21;99653.53;1088560;54;20489;-80
2022/07/23 02:10:58;;;;;;;;;;;;;;;25.32;48.04;99649.13;1088364;54;19977;-82
2022/07/23 02:11:59;;;;;;;;;;;;;;;25.31;47.93;99653.00;1088287;54;19923;-80
2022/07/23 02:13:03;;;;;;;;;;;;;;;25.26;48.29;99647.44;1093881;39;20384;-82
2022/07/23 02:14:04;;;;;;;;;;;;;;;25.23;48.41;99653.38;1095144;39;20412;-81
2022/07/23 02:15:09;;;;;;;;;;;;;;;25.24;48.28;99657.78;1088448;54;19922;-80
2022/07/23 02:16:10;;;;;;;;;;;;;;;25.26;47.96;99652.91;1088428;54;19957;-82
2022/07/23 02:17:14;;;;;;;;;;;;;;;25.14;48.58;99657.63;1088463;54;19927;-82
2022/07/23 02:18:15;;;;;;;;;;;;;;;25.15;48.52;99659.28;1088455;54;19943;-80
2022/07/23 02:19:18;;;;;;;;;;;;;;;25.21;48.37;99656.38;1089977;39;20420;-80
2022/07/23 02:20:20;;;;;;;;;;;;;;;25.27;48.24;99654.56;1088464;54;19927;-80
2022/07/23 02:21:24;;;;;;;;;;;;;;;25.24;48.53;99660.53;1088475;54;20484;-83
2022/07/23 02:22:25;;;;;;;;;;;;;;;25.13;48.53;99659.56;1088465;54;19935;-81
2022/07/23 02:23:29;;;;;;;;;;;;;;;25.19;48.81;99665.94;1088007;54;19942;-81
2022/07/23 02:24:30;;;;;;;;;;;;;;;25.07;48.96;99666.84;1088141;54;19935;-82
2022/07/23 02:25:36;;;;;;;;;;;;;;;25.01;48.94;99673.31;1088114;54;19950;-82
2022/07/23 02:26:37;;;;;;;;;;;;;;;25.03;49.28;99665.69;1088007;54;20508;-80
2022/07/23 02:27:43;;;;;;;;;;;;;;;25.01;49.33;99673.31;1088040;54;19962;-81
2022/07/23 02:28:44;;;;;;;;;;;;;;;25.01;49.52;99673.31;1088228;54;19939;-80
2022/07/23 02:29:48;;;;;;;;;;;;;;;24.91;50.23;99670.44;1089345;39;20530;-80
2022/07/23 02:30:49;;;;;;;;;;;;;;;24.93;50.47;99673.75;1088390;54;19943;-80
2022/07/23 02:31:53;;;;;;;;;;;;;;;25.01;50.07;99667.84;1088548;54;19939;-81
2022/07/23 02:32:54;;;;;;;;;;;;;;;24.91;50.08;99679.44;1088409;54;19943;-81
2022/07/23 02:33:58;;;;;;;;;;;;;;;24.87;50.13;99680.19;1088415;54;19942;-81
2022/07/23 02:34:59;;;;;;;;;;;;;;;24.81;50.48;99675.72;1097475;39;20376;-79
2022/07/23 02:36:04;;;;;;;;;;;;;;;24.79;50.28;99675.13;1088257;54;19945;-81
2022/07/23 02:37:05;;;;;;;;;;;;;;;24.81;50.45;99687.47;1088431;54;20020;-82
2022/07/23 02:38:09;;;;;;;;;;;;;;;24.75;50.71;99688.47;1088235;54;19957;-81
2022/07/23 02:39:11;;;;;;;;;;;;;;;24.72;50.88;99684.34;1088389;54;19945;-79
2022/07/23 02:40:15;;;;;;;;;;;;;;;24.74;50.64;99684.94;1088063;54;20456;-79
2022/07/23 02:41:18;;;;;;;;;;;;;;;24.66;50.77;99684.47;1087558;54;19947;-78
2022/07/23 02:42:23;;;;;;;;;;;;;;;24.60;51.17;99683.53;1083530;54;19946;-70
2022/07/23 02:43:24;;;;;;;;;;;;;;;24.55;51.50;99683.47;1083748;39;20337;-68
2022/07/23 02:44:28;;;;;;;;;;;;;;;24.55;51.62;99687.00;1083814;54;19977;-72
2022/07/23 02:45:29;;;;;;;;;;;;;;;24.51;51.66;99682.28;1084977;39;20083;-72
2022/07/23 02:46:33;;;;;;;;;;;;;;;24.52;51.69;99694.88;1083989;54;19946;-69
2022/07/23 02:47:34;;;;;;;;;;;;;;;24.48;51.70;99693.69;1083903;54;19947;-71
2022/07/23 02:48:37;;;;;;;;;;;;;;;24.51;51.76;99685.88;1084079;54;19939;-71
2022/07/23 02:49:39;;;;;;;;;;;;;;;24.49;51.99;99693.47;1083919;54;19938;-71
2022/07/23 02:50:42;;;;;;;;;;;;;;;24.49;52.01;99687.16;1083785;54;20050;-71
2022/07/23 02:51:43;;;;;;;;;;;;;;;24.55;51.94;99697.13;1084058;54;19950;-72
2022/07/23 02:52:47;;;;;;;;;;;;;;;24.53;52.00;99688.34;1084092;46;19970;-70
2022/07/23 02:53:48;;;;;;;;;;;;;;;24.41;52.63;99694.69;1083899;54;19969;-72
2022/07/23 02:54:52;;;;;;;;;;;;;;;24.40;52.65;99693.03;1083393;54;19938;-71
2022/07/23 02:55:53;;;;;;;;;;;;;;;24.40;52.83;99698.50;1083420;54;19939;-71
2022/07/23 02:56:59;;;;;;;;;;;;;;;24.38;52.90;99708.81;1083184;54;19946;-72
2022/07/23 02:58:00;;;;;;;;;;;;;;;24.31;53.09;99699.97;1083615;54;19947;-72
2022/07/23 02:59:04;;;;;;;;;;;;;;;24.28;53.52;99708.63;1083936;54;19962;-71
2022/07/23 03:00:06;;;;;;;;;;;;;;;24.26;53.52;99717.06;1082670;54;19951;-71
2022/07/23 03:01:10;;;;;;;;;;;;;;;24.25;53.31;99709.13;1082629;54;19946;-72
2022/07/23 03:02:11;;;;;;;;;;;;;;;24.33;53.17;99714.22;1082926;54;19946;-72
2022/07/23 03:03:14;;;;;;;;;;;;;;;24.31;53.14;99713.63;1082991;54;19957;-72
2022/07/23 03:04:16;;;;;;;;;;;;;;;24.38;53.22;99714.28;1083881;54;19947;-70
2022/07/23 03:05:19;;;;;;;;;;;;;;;24.40;52.74;99716.78;1083732;54;19958;-73
2022/07/23 03:06:20;;;;;;;;;;;;;;;24.38;52.81;99724.41;1083264;54;19954;-72
2022/07/23 03:07:24;;;;;;;;;;;;;;;24.38;53.35;99727.94;1083387;54;19976;-72
2022/07/23 03:08:25;;;;;;;;;;;;;;;24.35;52.91;99725.72;1082693;54;19969;-72
2022/07/23 03:09:29;;;;;;;;;;;;;;;24.35;53.10;99725.72;1082947;54;19947;-73
2022/07/23 03:10:30;;;;;;;;;;;;;;;24.37;53.26;99734.47;1082866;54;19958;-73
2022/07/23 03:11:34;;;;;;;;;;;;;;;24.46;52.88;99732.19;1083044;54;19970;-72
2022/07/23 03:12:37;;;;;;;;;;;;;;;24.32;53.46;99731.66;1082726;54;19950;-72
2022/07/23 03:13:41;;;;;;;;;;;;;;;24.39;53.34;99729.59;1082727;54;19958;-72
2022/07/23 03:14:42;;;;;;;;;;;;;;;24.47;53.12;99733.84;1082985;54;19950;-71
2022/07/23 03:15:46;;;;;;;;;;;;;;;24.39;53.48;99726.88;1082546;54;19953;-71
2022/07/23 03:16:49;;;;;;;;;;;;;;;24.25;54.02;99730.97;1082988;54;19962;-71
2022/07/23 03:17:53;;;;;;;;;;;;;;;24.16;54.11;99732.44;1082645;54;19950;-72
2022/07/23 03:18:54;;;;;;;;;;;;;;;24.14;54.29;99730.78;1082856;54;19946;-72
2022/07/23 03:19:57;;;;;;;;;;;;;;;24.15;54.15;99731.59;1082600;54;20477;-71
2022/07/23 03:20:59;;;;;;;;;;;;;;;24.06;54.86;99736.63;1082391;54;19950;-72
2022/07/23 03:22:02;;;;;;;;;;;;;;;24.13;54.30;99734.56;1082777;54;20534;-70
2022/07/23 03:23:03;;;;;;;;;;;;;;;24.25;54.07;99729.06;1082832;54;19946;-71
2022/07/23 03:24:07;;;;;;;;;;;;;;;24.25;53.82;99722.78;1082486;54;19947;-72
2022/07/23 03:25:09;;;;;;;;;;;;;;;24.03;54.79;99723.44;1083305;39;20669;-71
2022/07/23 03:26:12;;;;;;;;;;;;;;;23.91;55.17;99737.09;1082573;54;19986;-69
2022/07/23 03:27:14;;;;;;;;;;;;;;;23.93;55.15;99734.13;1082937;54;19947;-69
2022/07/23 03:28:20;;;;;;;;;;;;;;;23.93;55.19;99740.44;1082609;46;20521;-70
2022/07/23 03:29:21;;;;;;;;;;;;;;;23.97;54.92;99730.69;1082527;54;19946;-71
2022/07/23 03:30:25;;;;;;;;;;;;;;;23.97;54.94;99740.81;1083202;31;20405;-70
2022/07/23 03:31:26;;;;;;;;;;;;;;;23.87;55.39;99740.56;1082464;54;19947;-72
2022/07/23 03:32:31;;;;;;;;;;;;;;;23.85;55.56;99743.53;1083359;39;20429;-71
2022/07/23 03:33:32;;;;;;;;;;;;;;;23.76;55.74;99744.94;1082584;54;19958;-71
2022/07/23 03:34:35;;;;;;;;;;;;;;;23.82;55.81;99744.81;1083063;39;20349;-71
2022/07/23 03:35:38;;;;;;;;;;;;;;;23.84;55.59;99741.88;1082968;54;20779;-72
2022/07/23 03:36:42;;;;;;;;;;;;;;;23.84;55.86;99742.69;1082464;54;20494;-71
2022/07/23 03:37:43;;;;;;;;;;;;;;;23.93;55.51;99739.56;1082667;54;20096;-72
2022/07/23 03:38:47;;;;;;;;;;;;;;;23.96;55.58;99733.69;1082211;54;19971;-70
2022/07/23 03:39:48;;;;;;;;;;;;;;;24.07;54.93;99735.56;1082474;54;19946;-71
2022/07/23 03:40:52;;;;;;;;;;;;;;;24.07;55.09;99738.28;1083279;54;19966;-72
2022/07/23 03:41:53;;;;;;;;;;;;;;;24.01;55.34;99741.16;1083134;54;19939;-70
2022/07/23 03:42:56;;;;;;;;;;;;;;;23.96;55.34;99731.75;1083355;54;19973;-70
2022/07/23 03:44:00;;;;;;;;;;;;;;;23.90;55.53;99738.16;1083133;54;19946;-69
2022/07/23 03:45:04;;;;;;;;;;;;;;;23.80;56.15;99746.13;1083156;54;19981;-69
2022/07/23 03:46:05;;;;;;;;;;;;;;;23.82;56.27;99742.09;1083493;54;20038;-68
2022/07/23 03:47:09;;;;;;;;;;;;;;;23.74;56.49;99756.09;1083716;39;20381;-71
2022/07/23 03:48:10;;;;;;;;;;;;;;;23.75;56.16;99744.13;1083343;54;20422;-70
2022/07/23 03:49:13;;;;;;;;;;;;;;;23.70;56.23;99746.75;1083200;54;19946;-69
2022/07/23 03:50:15;;;;;;;;;;;;;;;23.67;56.29;99748.03;1083211;54;19947;-71
2022/07/23 03:51:18;;;;;;;;;;;;;;;23.64;56.52;99750.41;1083164;54;19946;-71
2022/07/23 03:52:19;;;;;;;;;;;;;;;23.61;56.68;99756.38;1083353;54;19973;-71
2022/07/23 03:53:23;;;;;;;;;;;;;;;23.58;56.49;99751.38;1083299;54;19986;-70
2022/07/23 03:54:24;;;;;;;;;;;;;;;23.63;56.53;99757.78;1083198;54;19969;-70
2022/07/23 03:55:28;;;;;;;;;;;;;;;23.55;56.87;99747.25;1083538;54;19947;-71
2022/07/23 03:56:29;;;;;;;;;;;;;;;23.64;56.37;99753.16;1082558;54;19947;-71
2022/07/23 03:57:33;;;;;;;;;;;;;;;23.57;56.73;99752.44;1082594;54;19985;-72
2022/07/23 03:58:34;;;;;;;;;;;;;;;23.63;56.36;99755.06;1082855;54;19974;-71
2022/07/23 03:59:40;;;;;;;;;;;;;;;23.66;56.51;99751.81;1082896;54;19947;-71
2022/07/23 04:00:41;;;;;;;;;;;;;;;23.48;57.05;99752.81;1083052;54;19946;-71
2022/07/23 04:01:45;;;;;;;;;;;;;;;23.47;57.25;99758.50;1082694;54;19958;-69
2022/07/23 04:02:46;;;;;;;;;;;;;;;23.40;57.39;99757.78;1083333;39;20352;-70
2022/07/23 04:03:50;;;;;;;;;;;;;;;23.45;57.12;99764.19;1082918;54;19958;-70
2022/07/23 04:04:51;;;;;;;;;;;;;;;23.44;57.47;99765.25;1082912;54;19989;-70
2022/07/23 04:05:54;;;;;;;;;;;;;;;23.43;57.16;99762.75;1083147;54;19977;-73
2022/07/23 04:06:55;;;;;;;;;;;;;;;23.36;57.52;99773.78;1082731;54;19962;-72
2022/07/23 04:07:59;;;;;;;;;;;;;;;23.29;57.65;99775.78;1082692;54;19951;-71
2022/07/23 04:09:00;;;;;;;;;;;;;;;23.31;57.96;99776.41;1083134;39;20318;-69
2022/07/23 04:10:04;;;;;;;;;;;;;;;23.39;57.65;99777.94;1082835;46;19970;-71
2022/07/23 04:11:05;;;;;;;;;;;;;;;23.34;57.76;99782.22;1082991;54;19950;-70
2022/07/23 04:12:09;;;;;;;;;;;;;;;23.35;57.45;99783.03;1082679;54;19946;-71
2022/07/23 04:13:10;;;;;;;;;;;;;;;23.47;57.37;99774.88;1082782;54;19977;-70
2022/07/23 04:14:14;;;;;;;;;;;;;;;23.59;56.77;99772.94;1082827;54;19957;-70
2022/07/23 04:15:20;;;;;;;;;;;;;;;23.64;56.59;99764.91;1082732;54;19947;-71
2022/07/23 04:16:21;;;;;;;;;;;;;;;23.68;56.72;99773.44;1083190;39;20463;-72
2022/07/23 04:17:25;;;;;;;;;;;;;;;23.74;56.45;99780.66;1082624;54;20045;-71
2022/07/23 04:18:26;;;;;;;;;;;;;;;23.72;56.33;99774.59;1082638;54;19958;-72
2022/07/23 04:19:30;;;;;;;;;;;;;;;23.73;56.50;99770.00;1083729;39;20355;-72
2022/07/23 04:20:31;;;;;;;;;;;;;;;23.61;56.97;99778.19;1083174;54;19938;-72
2022/07/23 04:21:35;;;;;;;;;;;;;;;23.56;56.94;99772.59;1083241;54;19950;-72
2022/07/23 04:22:38;;;;;;;;;;;;;;;23.62;56.73;99782.56;1083396;54;19946;-72
2022/07/23 04:23:39;;;;;;;;;;;;;;;23.68;56.32;99776.97;1083420;54;20420;-69
2022/07/23 04:24:43;;;;;;;;;;;;;;;23.56;56.94;99768.00;1083941;39;20444;-70
2022/07/23 04:25:44;;;;;;;;;;;;;;;23.56;56.95;99767.16;1083234;54;19963;-71
2022/07/23 04:26:48;;;;;;;;;;;;;;;23.62;56.74;99772.50;1083322;54;20417;-70
2022/07/23 04:27:49;;;;;;;;;;;;;;;23.68;56.41;99773.44;1083225;54;19954;-71
2022/07/23 04:28:53;;;;;;;;;;;;;;;23.55;56.45;99782.69;1083250;54;20066;-69
2022/07/23 04:29:54;;;;;;;;;;;;;;;23.48;56.82;99788.25;1083369;54;19951;-70
2022/07/23 04:31:01;;;;;;;;;;;;;;;23.44;56.95;99795.25;1083097;54;19947;-71
2022/07/23 04:32:02;;;;;;;;;;;;;;;23.50;56.62;99802.50;1083583;54;19951;-69
2022/07/23 04:33:09;;;;;;;;;;;;;;;23.56;56.49;99799.88;1083234;54;20050;-70
2022/07/23 04:34:17;;;;;;;;;;;;;;;23.55;56.51;99798.22;1083426;54;20062;-70
2022/07/23 04:35:18;;;;;;;;;;;;;;;23.42;56.77;99800.13;1082411;54;19947;-71
2022/07/23 04:36:22;;;;;;;;;;;;;;;23.42;57.07;99810.19;1082685;54;19984;-70
2022/07/23 04:37:26;;;;;;;;;;;;;;;23.41;56.83;99809.38;1083747;39;20380;-70
2022/07/23 04:38:27;;;;;;;;;;;;;;;23.36;57.07;99811.97;1083320;54;19947;-70
2022/07/23 04:39:31;;;;;;;;;;;;;;;23.31;57.19;99809.94;1083453;54;19981;-70
2022/07/23 04:40:32;;;;;;;;;;;;;;;23.42;56.83;99804.72;1083183;54;20417;-69
2022/07/23 04:41:36;;;;;;;;;;;;;;;23.52;56.42;99807.72;1083268;54;19947;-70
2022/07/23 04:42:38;;;;;;;;;;;;;;;23.51;56.48;99815.06;1083541;54;19958;-70
2022/07/23 04:43:42;;;;;;;;;;;;;;;23.37;56.63;99813.63;1083448;54;19981;-70
2022/07/23 04:44:43;;;;;;;;;;;;;;;23.33;57.18;99817.91;1083419;54;19947;-70
2022/07/23 04:45:47;;;;;;;;;;;;;;;23.30;57.18;99812.91;1083694;39;20340;-69
2022/07/23 04:46:51;;;;;;;;;;;;;;;23.27;56.98;99818.81;1083566;47;19938;-70
2022/07/23 04:47:55;;;;;;;;;;;;;;;23.38;56.94;99830.84;1083682;54;19950;-70
2022/07/23 04:48:56;;;;;;;;;;;;;;;23.33;56.54;99826.09;1083827;54;19939;-70
2022/07/23 04:50:00;;;;;;;;;;;;;;;23.39;56.56;99835.19;1085824;54;19954;-71
2022/07/23 04:51:01;;;;;;;;;;;;;;;23.39;56.36;99824.28;1086240;54;19951;-71
2022/07/23 04:52:05;;;;;;;;;;;;;;;23.18;56.87;99824.63;1086286;54;19938;-71
2022/07/23 04:53:06;;;;;;;;;;;;;;;23.07;57.44;99833.56;1085661;54;19947;-71
2022/07/23 04:54:10;;;;;;;;;;;;;;;23.03;57.43;99835.09;1083084;54;20065;-71
2022/07/23 04:55:11;;;;;;;;;;;;;;;23.11;57.43;99831.19;1083547;54;19938;-70
2022/07/23 04:56:14;;;;;;;;;;;;;;;23.17;57.16;99822.91;1083351;54;19981;-71
2022/07/23 04:57:18;;;;;;;;;;;;;;;23.12;57.15;99841.03;1083579;54;19946;-69
2022/07/23 04:58:20;;;;;;;;;;;;;;;23.08;57.26;99837.94;1083195;54;19951;-71
2022/07/23 04:59:24;;;;;;;;;;;;;;;23.12;57.05;99833.72;1083388;54;19943;-70
2022/07/23 05:00:25;;;;;;;;;;;;;;;23.12;56.96;99833.72;1083004;54;19939;-71
2022/07/23 05:01:28;;;;;;;;;;;;;;;23.01;57.32;99835.31;1083148;54;20030;-71
2022/07/23 05:02:32;;;;;;;;;;;;;;;23.02;57.21;99838.88;1083232;54;19962;-70
2022/07/23 05:03:36;;;;;;;;;;;;;;;23.14;56.78;99831.59;1083553;54;19946;-70
2022/07/23 05:04:38;;;;;;;;;;;;;;;23.07;57.05;99836.28;1083557;54;19942;-70
2022/07/23 05:05:42;;;;;;;;;;;;;;;23.14;56.89;99838.91;1083550;54;19946;-72
2022/07/23 05:06:43;;;;;;;;;;;;;;;23.21;56.53;99835.06;1083382;54;19939;-70
2022/07/23 05:07:47;;;;;;;;;;;;;;;23.17;56.93;99825.66;1083490;54;19954;-70
2022/07/23 05:08:48;;;;;;;;;;;;;;;23.24;56.72;99831.03;1083258;46;19966;-70
2022/07/23 05:09:51;;;;;;;;;;;;;;;23.26;56.47;99819.88;1083244;54;19939;-71
2022/07/23 05:10:53;;;;;;;;;;;;;;;23.37;56.13;99821.81;1083893;54;19962;-71
2022/07/23 05:11:57;;;;;;;;;;;;;;;23.44;56.64;99818.97;1083683;54;19946;-72
2022/07/23 05:12:58;;;;;;;;;;;;;;;23.39;57.11;99816.09;1083529;54;19946;-71
2022/07/23 05:14:01;;;;;;;;;;;;;;;23.31;56.77;99822.75;1083807;54;19946;-71
2022/07/23 05:15:03;;;;;;;;;;;;;;;23.25;57.54;99829.97;1083646;54;20460;-70
2022/07/23 05:16:07;;;;;;;;;;;;;;;23.18;57.35;99840.13;1083469;54;19947;-70
2022/07/23 05:17:09;;;;;;;;;;;;;;;23.25;57.82;99829.13;1083115;54;19946;-70
2022/07/23 05:18:16;;;;;;;;;;;;;;;23.19;57.90;99845.38;1083235;54;19946;-70
2022/07/23 05:19:18;;;;;;;;;;;;;;;23.20;57.91;99847.03;1083242;54;19939;-70
2022/07/23 05:20:22;;;;;;;;;;;;;;;23.20;57.73;99847.03;1083220;54;19947;-70
2022/07/23 05:21:27;;;;;;;;;;;;;;;23.17;58.92;99844.72;1083164;54;19938;-69
2022/07/23 05:22:29;;;;;;;;;;;;;;;23.07;58.69;99839.00;1083149;54;19938;-69
2022/07/23 05:23:34;;;;;;;;;;;;;;;23.04;58.57;99840.31;1083525;54;19947;-71
2022/07/23 05:24:36;;;;;;;;;;;;;;;23.00;58.91;99841.00;1083126;54;19969;-69
2022/07/23 05:25:42;;;;;;;;;;;;;;;23.05;58.47;99839.25;1083122;54;19961;-69
2022/07/23 05:26:44;;;;;;;;;;;;;;;23.13;58.28;99840.81;1083155;54;20440;-70
2022/07/23 05:27:48;;;;;;;;;;;;;;;23.10;58.50;99845.88;1082845;54;19951;-70